createdAt,value
2023-05-27T00:01:33.718Z,17.60
2023-05-27T00:04:01.694Z,17.60
2023-05-27T00:06:29.882Z,17.70
2023-05-27T00:08:57.808Z,17.70
2023-05-27T00:11:27.413Z,17.60
2023-05-27T00:13:55.338Z,17.50
2023-05-27T00:16:25.739Z,17.50
2023-05-27T00:18:53.973Z,17.50
2023-05-27T00:21:22.188Z,17.70
2023-05-27T00:23:53.654Z,17.70
2023-05-27T00:26:22.832Z,17.60
2023-05-27T00:28:53.454Z,17.60
2023-05-27T00:31:21.417Z,17.60
2023-05-27T00:33:50.716Z,17.50
2023-05-27T00:36:19.094Z,17.60
2023-05-27T00:38:47.028Z,17.50
2023-05-27T00:41:15.968Z,17.50
2023-05-27T00:43:43.901Z,17.60
2023-05-27T00:46:12.065Z,17.50
2023-05-27T00:48:40.376Z,17.60
2023-05-27T00:51:10.033Z,17.60
2023-05-27T00:53:42.667Z,17.50
2023-05-27T00:56:11.082Z,17.50
2023-05-27T00:58:39.605Z,17.50
2023-05-27T01:01:08.180Z,17.50
2023-05-27T01:03:37.181Z,17.40
2023-05-27T01:06:17.017Z,17.30
2023-05-27T01:08:54.980Z,17.30
2023-05-27T01:11:30.092Z,17.30
2023-05-27T01:14:02.728Z,17.40
2023-05-27T01:16:32.516Z,17.40
2023-05-27T01:19:04.063Z,17.30
2023-05-27T01:21:37.852Z,17.40
2023-05-27T01:24:08.139Z,17.40
2023-05-27T01:26:37.851Z,17.40
2023-05-27T01:29:06.576Z,17.30
2023-05-27T01:31:42.197Z,17.30
2023-05-27T01:34:12.148Z,17.30
2023-05-27T01:36:45.924Z,17.30
2023-05-27T01:39:15.769Z,17.20
2023-05-27T01:41:45.781Z,17.20
2023-05-27T01:44:18.182Z,17.20
2023-05-27T01:46:46.938Z,17.10
2023-05-27T01:49:15.025Z,17.20
2023-05-27T01:51:42.923Z,17.20
2023-05-27T01:54:11.416Z,17.10
2023-05-27T01:56:40.840Z,17.10
2023-05-27T01:59:09.027Z,17.00
2023-05-27T02:01:37.206Z,17.00
2023-05-27T02:04:05.805Z,17.00
2023-05-27T02:06:34.257Z,17.00
2023-05-27T02:09:02.200Z,17.10
2023-05-27T02:11:30.119Z,17.00
2023-05-27T02:14:00.186Z,17.00
2023-05-27T02:16:29.128Z,17.00
2023-05-27T02:18:57.488Z,17.00
2023-05-27T02:21:25.483Z,17.10
2023-05-27T02:23:53.374Z,17.00
2023-05-27T02:26:22.815Z,16.90
2023-05-27T02:28:51.034Z,16.90
2023-05-27T02:31:20.450Z,16.90
2023-05-27T02:33:48.471Z,17.00
2023-05-27T02:36:16.425Z,17.00
2023-05-27T02:38:45.381Z,16.90
2023-05-27T02:41:13.226Z,16.80
2023-05-27T02:43:41.066Z,16.80
2023-05-27T02:46:08.969Z,16.90
2023-05-27T02:48:38.192Z,16.90
2023-05-27T02:51:06.398Z,16.80
2023-05-27T02:53:34.347Z,16.80
2023-05-27T02:56:02.287Z,16.80
2023-05-27T02:58:30.564Z,16.80
2023-05-27T03:00:58.446Z,16.80
2023-05-27T03:03:26.447Z,16.80
2023-05-27T03:05:56.080Z,16.80
2023-05-27T03:08:24.064Z,16.80
2023-05-27T03:10:51.941Z,16.80
2023-05-27T03:13:19.870Z,16.70
2023-05-27T03:15:47.821Z,16.70
2023-05-27T03:18:15.696Z,16.80
2023-05-27T03:20:43.936Z,16.70
2023-05-27T03:23:13.252Z,16.70
2023-05-27T03:25:41.227Z,16.70
2023-05-27T03:28:09.759Z,16.80
2023-05-27T03:30:39.087Z,16.80
2023-05-27T03:33:07.696Z,16.70
2023-05-27T03:35:38.600Z,16.80
2023-05-27T03:38:06.857Z,16.70
2023-05-27T03:40:36.859Z,16.70
2023-05-27T03:43:08.941Z,16.60
2023-05-27T03:45:37.653Z,16.60
2023-05-27T03:48:06.216Z,16.60
2023-05-27T03:50:35.359Z,16.70
2023-05-27T03:53:04.177Z,16.60
2023-05-27T03:55:32.216Z,16.70
2023-05-27T03:58:03.187Z,16.70
2023-05-27T04:00:31.656Z,16.70
2023-05-27T04:02:59.732Z,16.70
2023-05-27T04:05:29.159Z,16.50
2023-05-27T04:07:57.171Z,16.50
2023-05-27T04:10:25.087Z,16.50
2023-05-27T04:12:52.993Z,16.00
2023-05-27T04:15:22.659Z,16.00
2023-05-27T04:17:53.087Z,16.20
2023-05-27T04:20:21.407Z,16.30
2023-05-27T04:22:54.069Z,16.50
2023-05-27T04:25:22.278Z,16.40
2023-05-27T04:28:05.185Z,16.20
2023-05-27T04:30:36.651Z,16.40
2023-05-27T04:33:12.190Z,16.30
2023-05-27T04:35:42.019Z,16.50
2023-05-27T04:38:11.601Z,17.20
2023-05-27T04:40:53.430Z,18.10
2023-05-27T04:43:34.186Z,18.80
2023-05-27T04:46:03.607Z,19.40
2023-05-27T04:48:32.394Z,19.70
2023-05-27T04:51:00.306Z,20.00
2023-05-27T04:53:28.296Z,20.30
2023-05-27T04:55:56.638Z,20.50
2023-05-27T04:58:24.573Z,20.30
2023-05-27T05:00:54.415Z,20.10
2023-05-27T05:03:37.786Z,19.70
2023-05-27T05:06:08.085Z,19.10
2023-05-27T05:08:36.004Z,18.60
2023-05-27T05:11:03.894Z,18.40
2023-05-27T05:13:31.878Z,18.10
2023-05-27T05:15:59.819Z,17.60
2023-05-27T05:18:29.346Z,17.30
2023-05-27T05:20:57.264Z,17.30
2023-05-27T05:23:33.546Z,17.20
2023-05-27T05:26:07.958Z,17.50
2023-05-27T05:28:40.253Z,17.50
2023-05-27T05:31:09.706Z,17.40
2023-05-27T05:33:39.168Z,17.60
2023-05-27T05:36:10.174Z,17.50
2023-05-27T05:38:51.738Z,17.40
2023-05-27T05:41:19.744Z,17.80
2023-05-27T05:43:48.142Z,17.80
2023-05-27T05:46:16.441Z,17.80
2023-05-27T05:48:46.884Z,17.70
2023-05-27T05:51:20.669Z,17.70
2023-05-27T05:53:53.112Z,17.80
2023-05-27T05:56:22.670Z,17.30
2023-05-27T05:58:50.809Z,17.50
2023-05-27T06:01:18.815Z,17.70
2023-05-27T06:03:49.048Z,17.80
2023-05-27T06:06:29.615Z,17.90
2023-05-27T06:09:19.976Z,18.10
2023-05-27T06:11:49.077Z,18.00
2023-05-27T06:14:17.241Z,18.00
2023-05-27T06:16:46.419Z,18.00
2023-05-27T06:19:17.630Z,18.00
2023-05-27T06:21:45.604Z,17.80
2023-05-27T06:24:45.321Z,17.80
2023-05-27T06:27:21.409Z,17.70
2023-05-27T06:29:49.359Z,17.70
2023-05-27T06:32:23.329Z,17.90
2023-05-27T06:34:53.261Z,18.20
2023-05-27T06:37:21.179Z,18.20
2023-05-27T06:39:49.127Z,18.20
2023-05-27T06:42:17.111Z,18.00
2023-05-27T06:44:45.017Z,18.20
2023-05-27T06:47:22.734Z,18.10
2023-05-27T06:49:52.946Z,18.30
2023-05-27T06:52:21.302Z,18.30
2023-05-27T06:55:08.575Z,18.30
2023-05-27T06:57:54.936Z,18.30
2023-05-27T07:00:31.035Z,18.30
2023-05-27T07:03:22.160Z,18.40
2023-05-27T07:05:51.615Z,18.30
2023-05-27T07:08:19.629Z,18.60
2023-05-27T07:10:50.817Z,18.60
2023-05-27T07:13:19.181Z,18.60
2023-05-27T07:15:52.627Z,18.70
2023-05-27T07:18:22.542Z,18.60
2023-05-27T07:20:53.518Z,18.60
2023-05-27T07:23:21.654Z,18.70
2023-05-27T07:25:58.622Z,18.80
2023-05-27T07:28:27.356Z,18.80
2023-05-27T07:31:04.610Z,18.70
2023-05-27T07:33:36.034Z,18.70
2023-05-27T07:36:05.587Z,18.70
2023-05-27T07:38:33.537Z,18.90
2023-05-27T07:41:01.680Z,19.00
2023-05-27T07:43:29.727Z,19.10
2023-05-27T07:45:57.773Z,19.10
2023-05-27T07:48:25.683Z,18.90
2023-05-27T07:50:53.727Z,19.10
2023-05-27T07:53:23.396Z,19.00
2023-05-27T07:55:52.037Z,19.20
2023-05-27T07:58:20.041Z,19.20
2023-05-27T08:01:05.496Z,19.20
2023-05-27T08:03:33.646Z,19.20
2023-05-27T08:06:30.801Z,19.40
2023-05-27T08:09:06.211Z,19.70
2023-05-27T08:12:03.323Z,20.30
2023-05-27T08:14:44.174Z,21.00
2023-05-27T08:17:35.573Z,21.80
2023-05-27T08:20:17.184Z,22.30
2023-05-27T08:23:00.562Z,22.50
2023-05-27T08:25:48.675Z,22.80
2023-05-27T08:28:24.481Z,23.20
2023-05-27T08:31:11.363Z,23.60
2023-05-27T08:33:42.192Z,23.70
2023-05-27T08:36:12.576Z,23.00
2023-05-27T08:38:41.394Z,22.70
2023-05-27T08:41:20.599Z,22.50
2023-05-27T08:43:48.700Z,22.30
2023-05-27T08:46:18.287Z,22.40
2023-05-27T08:48:47.353Z,22.30
2023-05-27T08:51:19.624Z,22.30
2023-05-27T08:53:48.022Z,22.40
2023-05-27T08:56:19.669Z,22.40
2023-05-27T08:58:50.501Z,22.40
2023-05-27T09:01:20.896Z,22.50
2023-05-27T09:03:49.788Z,22.50
2023-05-27T09:06:17.729Z,22.40
2023-05-27T09:08:51.121Z,22.30
2023-05-27T09:11:24.222Z,22.20
2023-05-27T09:13:55.846Z,22.30
2023-05-27T09:16:24.362Z,22.60
2023-05-27T09:18:52.656Z,22.80
2023-05-27T09:21:20.618Z,22.90
2023-05-27T09:23:48.555Z,23.00
2023-05-27T09:26:16.449Z,23.00
2023-05-27T09:28:44.507Z,23.20
2023-05-27T09:31:13.892Z,23.20
2023-05-27T09:33:42.374Z,23.00
2023-05-27T09:36:10.894Z,22.90
2023-05-27T09:38:39.373Z,23.10
2023-05-27T09:41:07.399Z,23.00
2023-05-27T09:43:36.599Z,23.00
2023-05-27T09:46:16.256Z,23.00
2023-05-27T09:48:45.537Z,23.10
2023-05-27T09:51:14.637Z,23.30
2023-05-27T09:53:43.259Z,23.20
2023-05-27T09:56:11.228Z,23.10
2023-05-27T09:58:39.273Z,23.10
2023-05-27T10:01:07.900Z,23.10
2023-05-27T10:03:39.699Z,23.10
2023-05-27T10:06:09.153Z,23.10
2023-05-27T10:08:37.248Z,23.00
2023-05-27T10:11:05.205Z,23.10
2023-05-27T10:13:33.137Z,23.10
2023-05-27T10:16:01.043Z,22.90
2023-05-27T10:18:30.500Z,22.90
2023-05-27T10:21:01.475Z,22.80
2023-05-27T10:23:31.338Z,22.70
2023-05-27T10:26:04.116Z,22.90
2023-05-27T10:28:33.928Z,22.90
2023-05-27T10:31:09.392Z,22.80
2023-05-27T10:33:38.609Z,22.70
2023-05-27T10:36:13.067Z,22.70
2023-05-27T10:38:43.523Z,22.60
2023-05-27T10:41:11.771Z,22.60
2023-05-27T10:43:39.781Z,22.70
2023-05-27T10:46:10.440Z,22.80
2023-05-27T10:48:40.874Z,22.70
2023-05-27T10:51:10.647Z,22.60
2023-05-27T10:53:39.229Z,22.60
2023-05-27T10:56:07.515Z,22.50
2023-05-27T10:58:37.077Z,22.50
2023-05-27T11:01:10.890Z,22.50
2023-05-27T11:03:45.271Z,22.40
2023-05-27T11:06:15.996Z,22.30
2023-05-27T11:08:44.211Z,22.10
2023-05-27T11:11:14.113Z,22.10
2023-05-27T11:13:46.874Z,22.00
2023-05-27T11:16:17.382Z,22.10
2023-05-27T11:18:46.971Z,22.20
2023-05-27T11:21:18.000Z,22.10
2023-05-27T11:23:47.210Z,22.10
2023-05-27T11:26:16.856Z,22.30
2023-05-27T11:28:52.109Z,22.40
2023-05-27T11:31:21.762Z,22.40
2023-05-27T11:33:52.358Z,22.40
2023-05-27T11:36:22.530Z,22.40
2023-05-27T11:38:52.040Z,22.40
2023-05-27T11:41:20.168Z,22.40
2023-05-27T11:43:52.541Z,22.40
2023-05-27T11:46:20.843Z,22.40
2023-05-27T11:48:49.047Z,22.30
2023-05-27T11:51:17.186Z,22.30
2023-05-27T11:53:48.777Z,22.30
2023-05-27T11:56:17.189Z,22.30
2023-05-27T11:58:45.107Z,22.10
2023-05-27T12:01:12.993Z,22.10
2023-05-27T12:03:42.460Z,22.00
2023-05-27T12:06:11.956Z,22.10
2023-05-27T12:08:40.283Z,22.10
2023-05-27T12:11:09.749Z,22.10
2023-05-27T12:13:37.986Z,22.20
2023-05-27T12:16:06.372Z,22.20
2023-05-27T12:18:34.279Z,22.10
2023-05-27T12:21:02.166Z,22.10
2023-05-27T12:23:30.097Z,22.20
2023-05-27T12:25:58.008Z,22.20
2023-05-27T12:28:27.255Z,22.10
2023-05-27T12:30:55.184Z,22.20
2023-05-27T12:33:23.284Z,22.30
2023-05-27T12:35:51.357Z,22.20
2023-05-27T12:38:19.425Z,22.10
2023-05-27T12:40:47.598Z,22.10
2023-05-27T12:43:15.633Z,22.10
2023-05-27T12:45:46.010Z,22.20
2023-05-27T12:48:14.063Z,22.20
2023-05-27T12:50:42.374Z,22.20
2023-05-27T12:53:11.107Z,22.20
2023-05-27T12:55:39.682Z,22.20
2023-05-27T12:58:07.580Z,22.20
2023-05-27T13:00:35.912Z,22.20
2023-05-27T13:03:05.353Z,22.10
2023-05-27T13:05:33.328Z,22.30
2023-05-27T13:08:02.436Z,22.20
2023-05-27T13:10:31.034Z,22.10
2023-05-27T13:13:01.262Z,22.10
2023-05-27T13:15:29.615Z,22.10
2023-05-27T13:17:59.916Z,22.10
2023-05-27T13:20:30.923Z,22.10
2023-05-27T13:23:01.926Z,22.00
2023-05-27T13:25:30.653Z,22.00
2023-05-27T13:27:59.115Z,22.00
2023-05-27T13:30:27.631Z,22.10
2023-05-27T13:32:56.119Z,22.10
2023-05-27T13:35:24.317Z,22.10
2023-05-27T13:37:54.039Z,22.20
2023-05-27T13:40:21.938Z,22.10
2023-05-27T13:42:49.804Z,22.20
2023-05-27T13:45:17.806Z,22.10
2023-05-27T13:47:46.435Z,22.10
2023-05-27T13:50:14.476Z,22.10
2023-05-27T13:52:42.478Z,22.10
2023-05-27T13:55:11.822Z,22.30
2023-05-27T13:57:41.049Z,22.40
2023-05-27T14:00:09.938Z,22.40
2023-05-27T14:02:38.029Z,22.40
2023-05-27T14:05:07.780Z,22.40
2023-05-27T14:07:42.249Z,22.30
2023-05-27T14:10:12.464Z,22.30
2023-05-27T14:12:41.262Z,22.30
2023-05-27T14:15:10.242Z,22.30
2023-05-27T14:17:38.268Z,22.40
2023-05-27T14:20:11.293Z,22.40
2023-05-27T14:22:39.450Z,22.30
2023-05-27T14:25:08.590Z,22.30
2023-05-27T14:27:37.801Z,22.30
2023-05-27T14:30:06.876Z,22.30
2023-05-27T14:32:34.905Z,22.30
2023-05-27T14:35:02.850Z,22.30
2023-05-27T14:37:30.762Z,22.40
2023-05-27T14:40:03.219Z,22.50
2023-05-27T14:42:34.647Z,22.40
2023-05-27T14:45:04.114Z,22.30
2023-05-27T14:47:31.989Z,22.30
2023-05-27T14:49:59.880Z,22.30
2023-05-27T14:52:27.819Z,22.30
2023-05-27T14:54:55.763Z,22.40
2023-05-27T14:57:23.706Z,22.40
2023-05-27T14:59:51.622Z,22.40
2023-05-27T15:02:21.301Z,22.40
2023-05-27T15:04:50.593Z,22.40
2023-05-27T15:07:23.644Z,22.40
2023-05-27T15:09:51.687Z,22.50
2023-05-27T15:12:19.622Z,22.50
2023-05-27T15:14:47.507Z,22.40
2023-05-27T15:17:15.543Z,22.50
2023-05-27T15:19:44.925Z,22.40
2023-05-27T15:22:12.820Z,22.30
2023-05-27T15:24:40.821Z,22.40
2023-05-27T15:27:08.797Z,22.50
2023-05-27T15:29:36.662Z,22.60
2023-05-27T15:32:04.825Z,22.60
2023-05-27T15:34:35.587Z,22.60
2023-05-27T15:37:05.158Z,22.60
2023-05-27T15:39:33.585Z,22.60
2023-05-27T15:42:01.495Z,22.60
2023-05-27T15:44:29.383Z,22.70
2023-05-27T15:46:57.335Z,22.70
2023-05-27T15:49:25.324Z,22.60
2023-05-27T15:51:53.335Z,22.40
2023-05-27T15:54:22.600Z,22.30
2023-05-27T15:56:50.556Z,22.20
2023-05-27T15:59:18.489Z,22.20
2023-05-27T16:01:46.514Z,22.20
2023-05-27T16:04:15.895Z,22.30
2023-05-27T16:06:43.836Z,22.30
2023-05-27T16:09:11.734Z,22.50
2023-05-27T16:11:41.121Z,22.60
2023-05-27T16:14:09.054Z,22.50
2023-05-27T16:16:37.209Z,22.60
2023-05-27T16:19:05.124Z,22.50
2023-05-27T16:21:33.388Z,22.50
2023-05-27T16:24:07.306Z,22.60
2023-05-27T16:26:36.135Z,22.50
2023-05-27T16:29:05.521Z,22.60
2023-05-27T16:31:33.540Z,22.50
2023-05-27T16:34:01.681Z,22.50
2023-05-27T16:36:29.631Z,22.50
2023-05-27T16:38:57.506Z,22.50
2023-05-27T16:41:26.722Z,22.40
2023-05-27T16:43:55.125Z,22.50
2023-05-27T16:46:24.478Z,22.50
2023-05-27T16:48:52.472Z,22.50
2023-05-27T16:51:20.412Z,22.50
2023-05-27T16:53:48.510Z,22.50
2023-05-27T16:56:16.482Z,22.50
2023-05-27T16:58:44.378Z,22.50
2023-05-27T17:01:12.916Z,22.40
2023-05-27T17:03:42.185Z,22.40
2023-05-27T17:06:10.069Z,22.40
2023-05-27T17:08:38.459Z,22.50
2023-05-27T17:11:06.560Z,22.50
2023-05-27T17:13:34.452Z,22.50
2023-05-27T17:16:02.492Z,22.50
2023-05-27T17:18:30.746Z,22.40
2023-05-27T17:21:00.305Z,22.40
2023-05-27T17:23:28.333Z,22.30
2023-05-27T17:25:56.226Z,22.30
2023-05-27T17:28:24.251Z,22.30
2023-05-27T17:30:52.291Z,22.30
2023-05-27T17:33:20.524Z,22.30
2023-05-27T17:35:48.423Z,22.30
2023-05-27T17:38:17.746Z,22.30
2023-05-27T17:40:45.675Z,22.30
2023-05-27T17:43:13.603Z,22.20
2023-05-27T17:45:41.477Z,22.30
2023-05-27T17:48:11.879Z,22.20
2023-05-27T17:50:40.219Z,22.30
2023-05-27T17:53:08.146Z,22.30
2023-05-27T17:55:37.451Z,22.20
2023-05-27T17:58:05.487Z,22.20
2023-05-27T18:00:36.546Z,22.20
2023-05-27T18:03:06.211Z,22.20
2023-05-27T18:05:34.427Z,22.20
2023-05-27T18:08:02.545Z,22.20
2023-05-27T18:10:30.611Z,22.20
2023-05-27T18:13:00.191Z,22.10
2023-05-27T18:15:28.057Z,22.20
2023-05-27T18:17:56.042Z,22.10
2023-05-27T18:20:24.116Z,22.10
2023-05-27T18:22:52.004Z,22.10
2023-05-27T18:25:20.743Z,22.10
2023-05-27T18:27:48.751Z,22.10
2023-05-27T18:30:18.004Z,22.00
2023-05-27T18:32:47.435Z,22.00
2023-05-27T18:35:29.787Z,22.00
2023-05-27T18:37:59.014Z,22.00
2023-05-27T18:40:27.747Z,21.90
2023-05-27T18:42:55.992Z,21.90
2023-05-27T18:45:47.454Z,21.90
2023-05-27T18:48:15.541Z,22.00
2023-05-27T18:50:43.408Z,22.00
2023-05-27T18:53:11.447Z,21.90
2023-05-27T18:55:39.323Z,21.90
2023-05-27T18:58:07.976Z,21.80
2023-05-27T19:00:37.223Z,21.70
2023-05-27T19:03:06.069Z,21.70
2023-05-27T19:05:33.980Z,21.70
2023-05-27T19:08:02.355Z,21.60
2023-05-27T19:10:30.841Z,21.70
2023-05-27T19:12:58.742Z,21.60
2023-05-27T19:15:26.644Z,21.60
2023-05-27T19:17:56.413Z,21.60
2023-05-27T19:20:24.480Z,21.70
2023-05-27T19:22:52.457Z,21.70
2023-05-27T19:25:20.749Z,21.70
2023-05-27T19:27:48.841Z,21.60
2023-05-27T19:30:16.911Z,21.70
2023-05-27T19:32:44.968Z,21.60
2023-05-27T19:35:14.379Z,21.60
2023-05-27T19:37:42.636Z,21.60
2023-05-27T19:40:11.120Z,21.60
2023-05-27T19:42:39.093Z,21.50
2023-05-27T19:45:08.744Z,21.50
2023-05-27T19:47:37.006Z,21.60
2023-05-27T19:50:05.836Z,21.50
2023-05-27T19:52:35.220Z,21.40
2023-05-27T19:55:03.105Z,21.40
2023-05-27T19:57:30.966Z,21.30
2023-05-27T19:59:58.866Z,21.30
2023-05-27T20:02:26.952Z,21.40
2023-05-27T20:04:54.931Z,21.50
2023-05-27T20:07:22.796Z,21.50
2023-05-27T20:09:52.164Z,21.50
2023-05-27T20:12:37.629Z,21.40
2023-05-27T20:15:06.264Z,21.40
2023-05-27T20:17:36.497Z,21.20
2023-05-27T20:20:04.802Z,21.30
2023-05-27T20:22:32.799Z,21.20
2023-05-27T20:25:02.055Z,21.20
2023-05-27T20:27:29.979Z,21.20
2023-05-27T20:29:58.144Z,21.20
2023-05-27T20:32:26.172Z,21.10
2023-05-27T20:34:55.133Z,21.10
2023-05-27T20:37:23.062Z,21.10
2023-05-27T20:39:51.017Z,21.10
2023-05-27T20:42:20.727Z,21.10
2023-05-27T20:44:48.665Z,21.00
2023-05-27T20:47:16.568Z,21.00
2023-05-27T20:49:44.492Z,21.00
2023-05-27T20:52:12.399Z,21.00
2023-05-27T20:54:40.249Z,20.90
2023-05-27T20:57:08.345Z,20.90
2023-05-27T20:59:37.651Z,20.90
2023-05-27T21:02:10.533Z,20.90
2023-05-27T21:04:38.581Z,20.80
2023-05-27T21:07:06.566Z,20.80
2023-05-27T21:09:34.546Z,20.90
2023-05-27T21:12:02.493Z,20.90
2023-05-27T21:14:30.350Z,20.80
2023-05-27T21:16:59.794Z,20.80
2023-05-27T21:19:27.718Z,20.80
2023-05-27T21:21:55.916Z,20.80
2023-05-27T21:24:23.807Z,20.70
2023-05-27T21:26:51.655Z,20.70
2023-05-27T21:29:19.560Z,20.80
2023-05-27T21:31:47.522Z,20.80
2023-05-27T21:34:16.806Z,20.80
2023-05-27T21:36:44.659Z,20.80
2023-05-27T21:39:12.584Z,20.80
2023-05-27T21:41:40.484Z,20.70
2023-05-27T21:44:08.690Z,20.60
2023-05-27T21:46:36.576Z,20.60
2023-05-27T21:49:04.523Z,20.60
2023-05-27T21:51:33.729Z,20.50
2023-05-27T21:54:01.630Z,20.50
2023-05-27T21:56:31.238Z,20.40
2023-05-27T21:58:59.417Z,20.40
2023-05-27T22:01:27.386Z,20.40
2023-05-27T22:03:55.454Z,20.40
2023-05-27T22:06:23.528Z,20.40
2023-05-27T22:08:52.728Z,20.40
2023-05-27T22:11:20.685Z,20.30
2023-05-27T22:13:53.636Z,20.30
2023-05-27T22:16:21.926Z,20.40
2023-05-27T22:18:49.855Z,20.30
2023-05-27T22:21:28.630Z,20.30
2023-05-27T22:23:59.454Z,20.30
2023-05-27T22:26:27.615Z,20.40
2023-05-27T22:28:55.493Z,20.30
2023-05-27T22:31:23.404Z,20.20
2023-05-27T22:33:51.557Z,20.20
2023-05-27T22:36:19.423Z,20.20
2023-05-27T22:38:47.329Z,20.10
2023-05-27T22:41:16.630Z,20.10
2023-05-27T22:43:44.601Z,20.10
2023-05-27T22:46:17.230Z,20.10
2023-05-27T22:48:45.717Z,20.00
2023-05-27T22:51:15.673Z,20.00
2023-05-27T22:53:44.222Z,20.00
2023-05-27T22:56:12.976Z,20.00
2023-05-27T22:58:43.148Z,20.00
2023-05-27T23:01:11.245Z,19.90
2023-05-27T23:03:39.260Z,20.00
2023-05-27T23:06:08.179Z,19.90
2023-05-27T23:08:36.356Z,19.90
2023-05-27T23:11:04.267Z,19.90
2023-05-27T23:13:32.348Z,19.80
2023-05-27T23:16:08.357Z,19.90
2023-05-27T23:18:36.572Z,19.90
2023-05-27T23:21:05.046Z,19.90
2023-05-27T23:23:33.307Z,19.80
2023-05-27T23:26:01.865Z,19.70
2023-05-27T23:28:29.761Z,19.70
2023-05-27T23:30:57.661Z,19.70
2023-05-27T23:33:27.400Z,19.70
2023-05-27T23:35:55.432Z,19.70
2023-05-27T23:38:23.507Z,19.60
2023-05-27T23:40:51.937Z,19.60
2023-05-27T23:43:19.833Z,19.60
2023-05-27T23:45:47.840Z,19.60
2023-05-27T23:48:15.740Z,19.60
2023-05-27T23:50:44.985Z,19.60
2023-05-27T23:53:12.929Z,19.50
2023-05-27T23:55:40.907Z,19.60
2023-05-27T23:58:08.831Z,19.60
